createdAt,value
2023-06-28T00:05:10.309Z,1018.37
2023-06-28T00:10:53.038Z,1018.39
2023-06-28T00:17:22.479Z,1018.37
2023-06-28T00:22:49.018Z,1018.37
2023-06-28T00:46:27.508Z,1018.39
2023-06-28T00:52:56.979Z,1018.44
2023-06-28T01:03:49.293Z,1018.45
2023-06-28T01:09:36.340Z,1018.40
2023-06-28T01:15:25.886Z,1018.47
2023-06-28T01:27:05.281Z,1018.50
2023-06-28T01:33:43.777Z,1018.48
2023-06-28T01:38:46.067Z,1018.56
2023-06-28T01:44:34.972Z,1018.60
2023-06-28T01:55:44.739Z,1018.42
2023-06-28T02:06:48.765Z,1018.28
2023-06-28T02:12:19.296Z,1018.24
2023-06-28T02:18:05.003Z,1018.32
2023-06-28T02:24:05.305Z,1018.41
2023-06-28T02:30:39.256Z,1018.42
2023-06-28T02:36:26.388Z,1018.43
2023-06-28T02:58:07.959Z,1018.31
2023-06-28T03:03:50.659Z,1018.21
2023-06-28T03:16:23.476Z,1018.23
2023-06-28T03:22:37.393Z,1018.18
2023-06-28T03:28:27.590Z,1018.13
2023-06-28T03:35:02.750Z,1018.12
2023-06-28T03:40:20.360Z,1018.15
2023-06-28T03:46:16.214Z,1018.11
2023-06-28T03:52:41.160Z,1018.13
2023-06-28T03:58:38.743Z,1017.99
2023-06-28T04:21:38.345Z,1018.01
2023-06-28T04:27:01.470Z,1017.91
2023-06-28T04:32:49.040Z,1017.91
2023-06-28T04:38:44.352Z,1017.90
2023-06-28T04:51:14.009Z,1017.91
2023-06-28T04:56:33.173Z,1017.90
2023-06-28T05:03:59.083Z,1017.94
2023-06-28T05:15:15.526Z,1017.93
2023-06-28T05:21:04.887Z,1017.91
2023-06-28T05:31:18.810Z,1017.94
2023-06-28T06:01:55.602Z,1018.00
2023-06-28T06:07:45.062Z,1018.11
2023-06-28T06:22:40.030Z,1018.27
2023-06-28T06:27:53.101Z,1018.33
2023-06-28T06:38:36.848Z,1018.42
2023-06-28T06:45:20.900Z,1018.47
2023-06-28T06:50:56.803Z,1018.50
2023-06-28T06:56:40.354Z,1018.55
2023-06-28T07:08:11.561Z,1018.61
2023-06-28T07:14:44.419Z,1018.55
2023-06-28T07:20:37.862Z,1018.59
2023-06-28T07:25:57.256Z,1018.58
2023-06-28T07:31:44.558Z,1018.54
2023-06-28T07:45:52.006Z,1018.66
2023-06-28T07:52:10.284Z,1018.61
2023-06-28T07:58:08.868Z,1018.75
2023-06-28T08:04:31.185Z,1018.81
2023-06-28T08:10:49.219Z,1018.80
2023-06-28T08:16:36.394Z,1018.71
2023-06-28T08:22:23.917Z,1018.63
2023-06-28T08:33:33.224Z,1018.64
2023-06-28T08:40:20.894Z,1018.65
2023-06-28T08:45:38.545Z,1018.57
2023-06-28T08:57:26.254Z,1018.67
2023-06-28T09:20:11.131Z,1018.43
2023-06-28T09:36:41.897Z,1018.27
2023-06-28T09:42:22.300Z,1018.26
2023-06-28T09:53:30.376Z,1018.20
2023-06-28T09:59:30.525Z,1018.17
2023-06-28T10:05:06.211Z,1018.16
2023-06-28T10:11:00.036Z,1018.20
2023-06-28T10:17:47.990Z,1018.13
2023-06-28T10:23:37.705Z,1018.16
2023-06-28T10:29:25.296Z,1018.14
2023-06-28T10:35:12.550Z,1018.19
2023-06-28T10:47:06.898Z,1018.17
2023-06-28T10:59:00.242Z,1018.17
2023-06-28T11:04:59.812Z,1018.13
2023-06-28T11:13:50.184Z,1018.16
2023-06-28T11:19:34.063Z,1018.14
2023-06-28T11:25:47.807Z,1018.08
2023-06-28T11:30:56.464Z,1018.05
2023-06-28T11:36:57.449Z,1018.10
2023-06-28T11:42:41.482Z,1018.09
2023-06-28T11:48:35.032Z,1018.01
2023-06-28T11:54:24.858Z,1017.99
2023-06-28T12:12:25.065Z,1017.96
2023-06-28T12:18:27.191Z,1017.94
2023-06-28T12:36:54.830Z,1017.85
2023-06-28T12:44:07.533Z,1017.79
2023-06-28T12:49:59.487Z,1017.81
2023-06-28T12:56:12.217Z,1017.77
2023-06-28T13:05:31.571Z,1017.72
2023-06-28T13:08:25.113Z,1017.78
2023-06-28T13:43:19.920Z,1017.69
2023-06-28T13:51:54.745Z,1017.71
2023-06-28T13:56:38.823Z,1017.60
2023-06-28T14:02:01.223Z,1017.56
2023-06-28T14:08:51.245Z,1017.56
2023-06-28T14:28:02.651Z,1017.50
2023-06-28T14:34:58.130Z,1017.59
2023-06-28T14:41:46.660Z,1017.52
2023-06-28T15:14:34.594Z,1017.47
2023-06-28T15:26:45.739Z,1017.43
2023-06-28T15:59:08.354Z,1017.24
2023-06-28T16:10:54.230Z,1017.21
2023-06-28T16:16:58.699Z,1017.15
2023-06-28T16:22:23.802Z,1017.08
2023-06-28T16:27:45.847Z,1017.09
2023-06-28T16:33:49.063Z,1017.06
2023-06-28T16:43:27.489Z,1017.09
2023-06-28T16:54:39.662Z,1017.12
2023-06-28T17:00:26.974Z,1017.16
2023-06-28T17:06:22.096Z,1017.25
2023-06-28T17:12:08.338Z,1017.21
2023-06-28T17:17:50.819Z,1017.21
2023-06-28T17:23:35.795Z,1017.18
2023-06-28T17:29:25.492Z,1017.15
2023-06-28T17:36:13.615Z,1017.19
2023-06-28T17:41:04.340Z,1017.20
2023-06-28T17:46:49.191Z,1017.21
2023-06-28T17:59:24.011Z,1017.21
2023-06-28T18:03:58.521Z,1017.25
2023-06-28T18:09:46.709Z,1017.20
2023-06-28T18:15:38.365Z,1017.23
2023-06-28T18:21:21.377Z,1017.26
2023-06-28T18:37:28.217Z,1017.25
2023-06-28T18:38:12.530Z,1017.23
2023-06-28T18:42:50.225Z,1017.27
2023-06-28T18:48:09.641Z,1017.26
2023-06-28T18:54:22.573Z,1017.27
2023-06-28T18:59:49.216Z,1017.26
2023-06-28T19:06:33.991Z,1017.31
2023-06-28T19:12:16.989Z,1017.30
2023-06-28T19:18:15.092Z,1017.30
2023-06-28T19:34:38.566Z,1017.41
2023-06-28T19:40:35.902Z,1017.46
2023-06-28T19:46:23.130Z,1017.42
2023-06-28T19:52:10.778Z,1017.46
2023-06-28T19:57:21.339Z,1017.55
2023-06-28T20:02:47.431Z,1017.55
2023-06-28T20:08:10.300Z,1017.55
2023-06-28T20:13:51.941Z,1017.54
2023-06-28T20:18:59.322Z,1017.55
2023-06-28T20:24:06.852Z,1017.55
2023-06-28T20:29:32.400Z,1017.58
2023-06-28T20:35:10.841Z,1017.65
2023-06-28T20:40:36.733Z,1017.63
2023-06-28T20:45:52.365Z,1017.63
2023-06-28T20:51:49.984Z,1017.70
2023-06-28T20:57:45.776Z,1017.69
2023-06-28T21:03:33.104Z,1017.60
2023-06-28T21:09:51.032Z,1017.61
2023-06-28T21:15:52.532Z,1017.61
2023-06-28T21:21:35.053Z,1017.64
2023-06-28T21:26:50.741Z,1017.65
2023-06-28T21:32:33.100Z,1017.57
2023-06-28T21:38:02.541Z,1017.59
2023-06-28T21:43:37.843Z,1017.59
2023-06-28T21:49:16.964Z,1017.62
2023-06-28T21:54:55.836Z,1017.63
2023-06-28T22:00:14.331Z,1017.60
2023-06-28T22:05:57.194Z,1017.66
2023-06-28T22:11:13.224Z,1017.64
2023-06-28T22:16:57.976Z,1017.63
2023-06-28T22:22:11.732Z,1017.69
2023-06-28T22:27:54.352Z,1017.65
2023-06-28T22:33:36.855Z,1017.71
2023-06-28T22:39:24.011Z,1017.70
2023-06-28T22:45:11.197Z,1017.69
2023-06-28T22:50:58.381Z,1017.66
2023-06-28T22:56:31.445Z,1017.60
2023-06-28T23:02:11.723Z,1017.63
2023-06-28T23:07:54.341Z,1017.61
2023-06-28T23:13:12.958Z,1017.60
2023-06-28T23:18:25.094Z,1017.55
2023-06-28T23:23:35.177Z,1017.53
2023-06-28T23:28:49.734Z,1017.52
2023-06-28T23:34:01.107Z,1017.51
2023-06-28T23:40:11.833Z,1017.43
2023-06-28T23:45:52.017Z,1017.34
2023-06-28T23:51:34.385Z,1017.38
2023-06-28T23:57:40.339Z,1017.35
